Time;durP1;ratioP1;P1;durP2;ratioP2;P2;SDS_P1;SDS_P2;PMS_P1;PMS_P2;Temp;Humidity;BMP_temperature;BMP_pressure;BME280_temperature;BME280_humidity;BME280_pressure;Samples;Min_cycle;Max_cycle;Signal;HPM_P1;HPM_P2
2023/12/28 00:01:36;;;;;;;1.07;0.97;;;;;;;7.04;73.24;96507.25;5131141;27;20439;-53
2023/12/28 00:04:05;;;;;;;0.50;0.40;;;;;;;7.24;73.00;96511.50;5132412;27;21049;-53
2023/12/28 00:06:34;;;;;;;0.60;0.50;;;;;;;7.08;70.95;96512.09;5132254;27;20438;-52
2023/12/28 00:09:02;;;;;;;3.13;0.70;;;;;;;6.56;73.93;96518.59;5132153;27;20442;-53
2023/12/28 00:11:40;;;;;;;1.47;1.37;;;;;;;6.21;75.40;96528.78;5126080;27;20446;-53
2023/12/28 00:14:09;;;;;;;1.20;0.90;;;;;;;6.17;76.22;96524.97;5125497;28;20446;-53
2023/12/28 00:16:38;;;;;;;5.30;0.97;;;;;;;6.00;77.02;96535.16;5132742;27;20434;-53
2023/12/28 00:19:06;;;;;;;8.03;0.80;;;;;;;6.16;74.52;96532.06;5131171;27;20437;-53
2023/12/28 00:21:35;;;;;;;5.93;2.30;;;;;;;6.26;73.40;96536.84;5132132;27;20431;-53
2023/12/28 00:24:04;;;;;;;3.10;1.13;;;;;;;6.42;73.02;96532.91;5131907;27;20456;-53
2023/12/28 00:26:33;;;;;;;3.13;1.33;;;;;;;6.42;71.69;96540.81;5132373;28;20446;-53
2023/12/28 00:29:03;;;;;;;2.60;2.03;;;;;;;5.59;71.75;96425.06;5131571;28;20499;-53
2023/12/28 00:31:31;;;;;;;2.67;1.20;;;;;;;6.29;72.38;96539.88;5132371;27;20444;-53
2023/12/28 00:34:00;;;;;;;1.27;1.10;;;;;;;6.30;71.81;96546.75;5131661;28;20434;-53
2023/12/28 00:36:29;;;;;;;0.83;0.83;;;;;;;6.40;72.01;96533.91;5132375;27;20439;-53
2023/12/28 00:38:58;;;;;;;0.80;0.60;;;;;;;5.78;71.43;96462.81;5131813;27;20510;-52
2023/12/28 00:41:27;;;;;;;0.83;0.83;;;;;;;6.26;71.48;96552.66;5131852;27;20957;-52
2023/12/28 00:43:55;;;;;;;2.43;1.30;;;;;;;6.26;71.85;96555.28;5131885;27;20434;-52
2023/12/28 00:46:25;;;;;;;1.77;1.50;;;;;;;6.23;72.05;96561.78;5130728;27;20470;-52
2023/12/28 00:48:54;;;;;;;5.73;1.23;;;;;;;6.20;71.70;96556.94;5131965;27;20438;-53
2023/12/28 00:51:22;;;;;;;1.40;1.30;;;;;;;6.25;71.94;96564.19;5118910;28;20471;-52
2023/12/28 00:53:51;;;;;;;1.63;1.50;;;;;;;6.25;72.80;96541.31;5131122;28;20439;-52
2023/12/28 00:56:20;;;;;;;0.80;0.80;;;;;;;6.33;71.72;96566.56;5132204;27;20492;-52
2023/12/28 00:58:49;;;;;;;1.37;1.27;;;;;;;6.23;71.15;96561.78;5105987;28;20438;-52
2023/12/28 01:01:18;;;;;;;0.80;0.80;;;;;;;6.26;71.61;96576.34;5131107;28;20517;-52
2023/12/28 01:03:48;;;;;;;1.00;0.80;;;;;;;6.30;71.90;96578.34;5132441;28;20492;-52
2023/12/28 01:06:17;;;;;;;1.60;1.00;;;;;;;6.39;70.53;96582.34;5130984;28;20852;-53
2023/12/28 01:08:46;;;;;;;0.90;0.50;;;;;;;6.23;71.19;96577.56;5132066;28;20446;-52
2023/12/28 01:11:15;;;;;;;1.87;1.77;;;;;;;6.24;71.32;96587.09;5132747;27;20430;-53
2023/12/28 01:13:43;;;;;;;2.10;0.70;;;;;;;6.28;71.23;96585.63;5135633;27;20450;-52
2023/12/28 01:16:13;;;;;;;0.93;0.60;;;;;;;6.27;70.83;96589.28;5135311;27;20423;-52
2023/12/28 01:18:42;;;;;;;0.47;0.47;;;;;;;6.20;71.30;96580.63;5136040;27;20438;-52
2023/12/28 01:21:13;;;;;;;1.43;1.33;;;;;;;6.22;71.60;96588.31;5133876;27;21018;-52
2023/12/28 01:23:41;;;;;;;1.10;0.90;;;;;;;6.17;71.85;96588.94;5135225;27;20442;-52
2023/12/28 01:26:14;;;;;;;10.30;1.47;;;;;;;6.12;71.42;96586.13;5135144;27;20470;-52
2023/12/28 01:28:42;;;;;;;1.23;0.47;;;;;;;6.24;71.92;96571.28;5134065;27;20465;-52
2023/12/28 01:31:11;;;;;;;0.40;0.30;;;;;;;6.36;72.49;96574.88;5134721;27;20499;-52
2023/12/28 01:33:40;;;;;;;0.50;0.50;;;;;;;6.45;71.12;96575.44;5135173;27;20435;-52
2023/12/28 01:36:18;;;;;;;0.60;0.60;;;;;;;6.33;71.63;96574.47;5135113;27;20434;-52
2023/12/28 01:38:48;;;;;;;0.50;0.40;;;;;;;6.29;70.60;96568.03;5134776;27;20438;-52
2023/12/28 01:41:16;;;;;;;1.43;1.43;;;;;;;6.27;71.85;96564.81;5134876;27;20927;-53
2023/12/28 01:43:45;;;;;;;0.40;0.40;;;;;;;6.28;71.56;96559.31;5134677;27;20446;-52
2023/12/28 01:46:18;;;;;;;1.33;0.70;;;;;;;6.23;70.93;96560.97;5135152;27;20486;-52
2023/12/28 01:48:50;;;;;;;0.60;0.40;;;;;;;6.19;71.07;96565.84;5133938;27;20483;-52
2023/12/28 01:51:22;;;;;;;0.60;0.60;;;;;;;6.16;71.68;96568.91;5134657;27;20481;-52
2023/12/28 01:53:53;;;;;;;0.53;0.53;;;;;;;5.98;72.12;96571.41;5108460;27;20859;-52
2023/12/28 01:56:22;;;;;;;0.60;0.50;;;;;;;6.12;72.56;96570.31;5133598;27;20434;-53
2023/12/28 01:58:52;;;;;;;0.40;0.30;;;;;;;6.09;70.88;96569.97;5135199;27;20435;-52
2023/12/28 02:01:21;;;;;;;0.73;0.50;;;;;;;5.48;73.65;96570.38;5134445;27;20445;-52
2023/12/28 02:03:50;;;;;;;0.60;0.47;;;;;;;4.78;77.90;96581.56;5134947;27;20445;-52
2023/12/28 02:06:24;;;;;;;2.07;0.90;;;;;;;4.32;81.28;96583.34;5133867;27;20474;-52
2023/12/28 02:08:53;;;;;;;2.67;2.47;;;;;;;4.54;83.48;96590.03;5134247;27;20446;-52
2023/12/28 02:11:21;;;;;;;3.90;2.17;;;;;;;4.37;84.53;96591.44;5134647;27;20439;-52
2023/12/28 02:13:50;;;;;;;2.30;2.10;;;;;;;4.70;83.23;96583.59;5133995;27;20438;-52
2023/12/28 02:16:24;;;;;;;2.00;1.43;;;;;;;5.15;79.65;96588.03;5134132;27;20598;-52
2023/12/28 02:18:55;;;;;;;0.83;0.83;;;;;;;5.31;77.24;96534.22;5133990;27;20445;-52
2023/12/28 02:21:26;;;;;;;1.10;1.03;;;;;;;5.60;75.98;96587.13;5133906;27;20443;-52
2023/12/28 02:23:54;;;;;;;1.33;1.03;;;;;;;5.55;74.71;96576.41;5133280;27;20474;-52
2023/12/28 02:26:24;;;;;;;2.53;2.10;;;;;;;5.48;74.82;96580.06;5134526;27;20522;-52
2023/12/28 02:28:53;;;;;;;0.93;0.93;;;;;;;5.11;77.12;96579.72;5133925;27;20439;-52
2023/12/28 02:31:29;;;;;;;3.23;1.27;;;;;;;5.46;78.66;96579.47;5133802;27;20438;-52
2023/12/28 02:34:05;;;;;;;1.40;0.87;;;;;;;5.70;79.91;96570.91;5133242;27;20441;-52
2023/12/28 02:36:37;;;;;;;0.40;0.40;;;;;;;5.67;77.28;96574.75;5133919;27;20438;-52
2023/12/28 02:39:07;;;;;;;1.33;1.23;;;;;;;5.63;76.67;96568.28;5133407;27;20435;-52
2023/12/28 02:41:38;;;;;;;0.77;0.77;;;;;;;5.56;74.88;96582.47;5134095;27;20434;-52
2023/12/28 02:44:06;;;;;;;0.57;0.57;;;;;;;5.55;74.69;96572.97;5133298;27;20434;-52
2023/12/28 02:46:35;;;;;;;2.07;0.90;;;;;;;5.58;74.21;96576.00;5133024;27;20489;-52
2023/12/28 02:49:03;;;;;;;1.00;0.70;;;;;;;5.54;73.55;96571.38;5132045;27;20442;-52
2023/12/28 02:51:32;;;;;;;0.77;0.70;;;;;;;5.38;73.68;96548.16;5132599;27;20502;-52
2023/12/28 02:54:01;;;;;;;3.50;1.20;;;;;;;5.64;73.49;96571.75;5133713;27;20521;-52
2023/12/28 02:56:29;;;;;;;0.93;0.93;;;;;;;5.65;73.08;96568.91;5133478;27;20430;-52
2023/12/28 02:58:59;;;;;;;1.20;1.00;;;;;;;5.58;72.96;96567.28;5133642;27;20449;-52
2023/12/28 03:01:28;;;;;;;0.50;0.50;;;;;;;5.44;72.92;96565.75;5133278;27;20449;-52
2023/12/28 03:03:57;;;;;;;0.60;0.60;;;;;;;5.43;72.90;96559.66;5133871;27;20823;-52
2023/12/28 03:06:25;;;;;;;5.37;1.23;;;;;;;5.44;73.21;96565.75;5132795;27;20478;-52
2023/12/28 03:08:54;;;;;;;2.30;0.50;;;;;;;5.46;73.63;96553.19;5133472;27;20830;-52
2023/12/28 03:11:23;;;;;;;1.40;1.40;;;;;;;5.22;72.88;96509.16;5133428;27;21077;-52
2023/12/28 03:13:51;;;;;;;0.77;0.50;;;;;;;5.62;73.10;96571.13;5133805;27;20442;-52
2023/12/28 03:16:21;;;;;;;2.23;2.13;;;;;;;5.65;71.96;96574.16;5119522;27;20430;-52
2023/12/28 03:18:49;;;;;;;1.13;1.03;;;;;;;5.59;72.29;96574.97;5133338;27;20495;-52
2023/12/28 03:21:18;;;;;;;0.50;0.40;;;;;;;5.47;72.33;96574.00;5133441;27;20503;-52
2023/12/28 03:23:47;;;;;;;4.87;1.40;;;;;;;5.50;72.33;96568.34;5132461;27;20948;-52
2023/12/28 03:26:15;;;;;;;0.50;0.47;;;;;;;5.49;72.19;96571.97;5133377;27;20470;-52
2023/12/28 03:28:44;;;;;;;0.67;0.47;;;;;;;5.47;72.88;96573.19;5132209;27;20434;-52
2023/12/28 03:31:12;;;;;;;1.70;1.00;;;;;;;5.55;72.26;96572.97;5133055;27;20487;-52
2023/12/28 03:33:42;;;;;;;1.33;0.50;;;;;;;5.47;71.90;96560.03;5130645;27;20958;-52
2023/12/28 03:36:19;;;;;;;2.70;0.90;;;;;;;5.54;72.05;96572.16;5120898;27;20437;-52
2023/12/28 03:38:48;;;;;;;2.77;0.70;;;;;;;5.51;71.88;96559.44;5133044;27;20521;-52
2023/12/28 03:41:20;;;;;;;1.97;0.73;;;;;;;5.42;72.33;96557.22;5132964;27;20982;-52
2023/12/28 03:43:49;;;;;;;0.73;0.60;;;;;;;5.52;73.01;96584.72;5132939;27;20507;-52
2023/12/28 03:46:17;;;;;;;0.67;0.67;;;;;;;5.49;72.80;96579.06;5132879;27;20909;-52
2023/12/28 03:48:47;;;;;;;0.40;0.30;;;;;;;5.47;72.96;96584.53;5132834;27;20442;-52
2023/12/28 03:51:16;;;;;;;1.57;0.80;;;;;;;5.45;73.09;96591.00;5132174;27;20470;-52
2023/12/28 03:53:45;;;;;;;0.87;0.53;;;;;;;5.37;72.30;96583.31;5105815;27;20446;-52
2023/12/28 03:56:23;;;;;;;1.83;0.90;;;;;;;5.24;73.05;96572.84;5132263;27;20534;-52
2023/12/28 03:58:52;;;;;;;0.70;0.70;;;;;;;5.48;72.53;96591.41;5132432;27;20438;-52
2023/12/28 04:01:21;;;;;;;1.43;0.33;;;;;;;5.53;73.04;96590.78;5132463;27;20535;-52
2023/12/28 04:03:52;;;;;;;0.40;0.30;;;;;;;5.47;72.46;96586.34;5132341;27;20477;-52
2023/12/28 04:06:20;;;;;;;2.20;0.77;;;;;;;5.49;72.57;96579.06;5132711;27;20477;-52
2023/12/28 04:08:49;;;;;;;0.40;0.33;;;;;;;5.47;72.28;96581.88;5132538;27;20816;-52
2023/12/28 04:11:17;;;;;;;4.00;1.53;;;;;;;5.53;72.26;96586.34;5131948;27;20479;-52
2023/12/28 04:13:46;;;;;;;2.03;1.07;;;;;;;5.53;72.39;96577.63;5132236;27;21090;-52
2023/12/28 04:16:15;;;;;;;0.80;0.80;;;;;;;5.41;71.99;96582.72;5132050;28;20437;-52
2023/12/28 04:18:44;;;;;;;1.50;1.50;;;;;;;5.32;72.05;96591.84;5132282;27;20442;-52
2023/12/28 04:21:15;;;;;;;0.63;0.60;;;;;;;5.09;72.59;96594.09;5132568;28;20430;-52
2023/12/28 04:23:43;;;;;;;0.53;0.53;;;;;;;4.41;76.47;96580.31;5131727;28;20475;-52
2023/12/28 04:26:12;;;;;;;5.03;2.93;;;;;;;3.89;79.71;96592.50;5132269;27;20917;-52
2023/12/28 04:28:41;;;;;;;2.80;2.07;;;;;;;3.48;85.74;96572.38;5132274;28;20499;-52
2023/12/28 04:31:09;;;;;;;1.23;1.20;;;;;;;3.79;86.94;96596.28;5132356;27;20511;-51
2023/12/28 04:33:38;;;;;;;3.70;2.63;;;;;;;4.24;82.91;96596.66;5131639;27;21031;-52
2023/12/28 04:36:07;;;;;;;2.23;2.00;;;;;;;4.47;79.53;96586.59;5131792;27;21001;-52
2023/12/28 04:38:38;;;;;;;2.30;2.20;;;;;;;4.78;88.50;96596.53;5131891;27;20445;-52
2023/12/28 04:41:07;;;;;;;0.60;0.50;;;;;;;4.73;79.09;96601.59;5132010;28;20853;-52
2023/12/28 04:43:36;;;;;;;1.40;1.30;;;;;;;4.74;77.41;96596.13;5118312;27;20485;-52
2023/12/28 04:46:05;;;;;;;0.93;0.93;;;;;;;4.73;76.86;96597.13;5132724;27;20817;-52
2023/12/28 04:48:34;;;;;;;12.07;1.90;;;;;;;4.50;76.94;96560.75;5135676;27;20535;-52
2023/12/28 04:51:04;;;;;;;2.30;0.90;;;;;;;4.75;76.42;96596.94;5135085;27;20468;-51
2023/12/28 04:53:33;;;;;;;1.40;1.10;;;;;;;4.80;76.13;96600.56;5121878;27;20469;-52
2023/12/28 04:56:04;;;;;;;4.90;1.60;;;;;;;4.56;75.83;96605.56;5135322;27;20442;-52
2023/12/28 04:58:32;;;;;;;0.80;0.80;;;;;;;4.43;77.92;96611.63;5135844;27;20434;-52
2023/12/28 05:01:02;;;;;;;2.20;1.23;;;;;;;4.55;78.94;96611.84;5135940;27;20492;-52
2023/12/28 05:03:31;;;;;;;7.97;2.00;;;;;;;4.46;78.75;96608.59;5135558;27;20430;-52
2023/12/28 05:06:02;;;;;;;1.47;1.03;;;;;;;4.24;84.19;96613.22;5135603;27;20527;-52
2023/12/28 05:08:31;;;;;;;6.07;2.80;;;;;;;4.44;84.55;96568.63;5135790;27;20466;-52
2023/12/28 05:10:59;;;;;;;2.40;2.23;;;;;;;4.90;81.27;96606.22;5135181;27;20442;-52
2023/12/28 05:13:29;;;;;;;6.33;2.07;;;;;;;4.89;82.86;96601.16;5135101;27;20439;-52
2023/12/28 05:15:58;;;;;;;1.60;1.50;;;;;;;5.03;81.91;96608.84;5134981;27;20444;-53
2023/12/28 05:18:27;;;;;;;0.83;0.83;;;;;;;4.98;79.56;96600.75;5135391;27;20434;-53
2023/12/28 05:20:55;;;;;;;1.20;1.10;;;;;;;4.94;77.15;96611.88;5135394;27;20809;-53
2023/12/28 05:23:24;;;;;;;1.13;1.13;;;;;;;4.81;76.78;96583.78;5135476;27;20438;-53
2023/12/28 05:25:52;;;;;;;2.10;1.00;;;;;;;4.69;76.33;96613.47;5135459;27;20446;-53
2023/12/28 05:28:21;;;;;;;5.23;1.93;;;;;;;4.48;76.95;96610.00;5135208;27;20534;-53
2023/12/28 05:30:51;;;;;;;2.60;2.47;;;;;;;4.37;77.16;96608.00;5135431;27;20438;-53
2023/12/28 05:33:19;;;;;;;3.30;2.37;;;;;;;4.24;78.24;96618.47;5134754;27;20533;-52
2023/12/28 05:35:48;;;;;;;1.87;1.70;;;;;;;4.26;78.24;96618.25;5135181;27;20439;-53
2023/12/28 05:38:17;;;;;;;1.70;1.60;;;;;;;4.17;78.98;96616.81;5134947;27;20866;-53
2023/12/28 05:40:46;;;;;;;4.50;2.63;;;;;;;4.10;80.38;96618.63;5134271;27;20434;-53
2023/12/28 05:43:15;;;;;;;6.07;2.07;;;;;;;4.06;81.44;96622.63;5134319;27;21018;-54
2023/12/28 05:45:43;;;;;;;2.73;2.53;;;;;;;4.05;82.41;96621.81;5134503;27;21034;-53
2023/12/28 05:48:13;;;;;;;1.73;1.63;;;;;;;4.03;83.29;96621.19;5134910;27;20498;-53
2023/12/28 05:50:42;;;;;;;4.00;1.57;;;;;;;4.10;82.03;96629.13;5134295;27;20487;-53
2023/12/28 05:53:13;;;;;;;11.17;2.63;;;;;;;3.96;82.06;96627.44;5134745;27;20834;-54
2023/12/28 05:55:43;;;;;;;1.63;1.53;;;;;;;3.89;82.00;96616.09;5134647;27;20438;-54
2023/12/28 05:58:11;;;;;;;3.80;0.80;;;;;;;3.81;82.99;96624.94;5133741;27;20430;-53
2023/12/28 06:00:40;;;;;;;2.17;0.93;;;;;;;3.91;82.66;96629.81;5133817;27;20438;-54
2023/12/28 06:03:09;;;;;;;1.77;1.67;;;;;;;4.00;82.03;96639.16;5132619;27;20470;-54
2023/12/28 06:05:39;;;;;;;2.10;1.33;;;;;;;4.28;80.26;96632.78;5134108;27;20443;-53
2023/12/28 06:08:08;;;;;;;0.70;0.70;;;;;;;4.31;79.29;96628.97;5133705;27;20474;-53
2023/12/28 06:10:36;;;;;;;2.00;1.80;;;;;;;4.12;79.71;96632.34;5134830;27;20438;-53
2023/12/28 06:13:06;;;;;;;3.03;0.77;;;;;;;3.97;80.79;96634.31;5134733;27;20438;-53
2023/12/28 06:15:34;;;;;;;2.47;2.27;;;;;;;3.93;81.36;96641.75;5133411;27;20462;-54
2023/12/28 06:18:04;;;;;;;5.03;3.00;;;;;;;3.94;81.37;96634.69;5132120;27;20438;-53
2023/12/28 06:20:33;;;;;;;1.30;1.20;;;;;;;3.96;81.56;96620.38;5132084;27;20438;-53
2023/12/28 06:23:03;;;;;;;3.27;2.97;;;;;;;4.21;81.56;96631.97;5132563;27;20469;-54
2023/12/28 06:25:32;;;;;;;2.90;1.80;;;;;;;4.42;80.34;96633.63;5132812;27;20437;-54
2023/12/28 06:28:00;;;;;;;2.30;1.43;;;;;;;4.66;79.62;96630.44;5132362;27;20495;-55
2023/12/28 06:30:29;;;;;;;1.60;1.00;;;;;;;4.75;79.23;96633.69;5132249;27;20443;-53
2023/12/28 06:32:58;;;;;;;3.40;3.20;;;;;;;4.76;78.42;96641.38;5134237;27;20438;-53
2023/12/28 06:35:27;;;;;;;5.80;3.10;;;;;;;4.71;79.28;96637.72;5133303;27;20470;-53
2023/12/28 06:37:55;;;;;;;3.37;3.27;;;;;;;4.72;78.99;96632.28;5134330;27;20493;-54
2023/12/28 06:40:26;;;;;;;10.40;4.47;;;;;;;5.18;78.22;96639.38;5133643;27;20438;-55
2023/12/28 06:42:54;;;;;;;4.00;3.70;;;;;;;5.44;77.27;96637.50;5134217;27;20438;-55
2023/12/28 06:45:27;;;;;;;7.63;4.47;;;;;;;5.86;74.74;96630.16;5133415;27;20841;-54
2023/12/28 06:47:57;;;;;;;5.97;5.57;;;;;;;6.11;74.58;96625.81;5134164;27;20501;-55
2023/12/28 06:50:26;;;;;;;7.90;4.57;;;;;;;6.12;74.53;96640.63;5133643;27;20445;-54
2023/12/28 06:52:54;;;;;;;4.90;4.20;;;;;;;6.20;74.40;96620.09;5132977;27;20478;-54
2023/12/28 06:55:23;;;;;;;4.07;3.90;;;;;;;6.65;72.72;96630.63;5133755;27;20441;-55
2023/12/28 06:57:53;;;;;;;4.60;4.37;;;;;;;7.11;71.46;96625.78;5133554;27;20435;-55
2023/12/28 07:00:21;;;;;;;3.37;3.17;;;;;;;7.41;70.34;96629.38;5133713;27;20446;-54
2023/12/28 07:02:50;;;;;;;4.17;3.97;;;;;;;7.48;70.42;96626.69;5133016;27;20443;-54
2023/12/28 07:05:19;;;;;;;7.40;3.30;;;;;;;7.77;68.21;96612.78;5133634;27;20935;-55
2023/12/28 07:07:47;;;;;;;5.70;3.87;;;;;;;8.18;67.58;96620.03;5133195;27;20473;-55
2023/12/28 07:10:16;;;;;;;13.80;5.60;;;;;;;8.37;65.17;96619.03;5133096;27;20431;-55
2023/12/28 07:12:45;;;;;;;15.57;6.70;;;;;;;8.84;63.87;96620.78;5122676;27;20435;-53
2023/12/28 07:15:15;;;;;;;11.53;6.73;;;;;;;9.33;61.79;96624.09;5133166;27;20983;-55
2023/12/28 07:17:43;;;;;;;7.87;5.57;;;;;;;9.39;60.93;96625.81;5132897;27;20438;-55
2023/12/28 07:20:12;;;;;;;11.00;4.67;;;;;;;9.27;60.18;96630.28;5132927;27;20949;-54
2023/12/28 07:22:41;;;;;;;7.50;4.03;;;;;;;9.45;59.66;96625.72;5132889;27;20430;-54
2023/12/28 07:25:10;;;;;;;10.53;3.40;;;;;;;9.23;58.74;96631.78;5133126;27;20442;-53
2023/12/28 07:27:38;;;;;;;2.73;2.60;;;;;;;9.54;58.30;96639.38;5133046;27;20442;-54
2023/12/28 07:30:08;;;;;;;12.93;5.07;;;;;;;9.88;56.82;96640.41;5133508;27;20443;-54
2023/12/28 07:32:38;;;;;;;6.23;2.57;;;;;;;10.17;56.17;96636.81;5133014;27;20422;-54
2023/12/28 07:35:07;;;;;;;2.40;2.20;;;;;;;10.43;56.00;96619.56;5132764;27;20811;-55
2023/12/28 07:37:36;;;;;;;1.57;0.80;;;;;;;10.17;55.09;96554.69;5106028;27;20439;-55
2023/12/28 07:40:06;;;;;;;5.40;2.00;;;;;;;10.64;53.87;96624.22;5132489;27;20434;-55
2023/12/28 07:42:34;;;;;;;1.43;1.33;;;;;;;10.44;53.76;96626.50;5133018;27;20468;-55
2023/12/28 07:45:04;;;;;;;1.70;1.57;;;;;;;10.88;53.95;96633.66;5131887;27;20495;-55
2023/12/28 07:47:33;;;;;;;5.30;2.60;;;;;;;11.10;53.81;96642.56;5132131;27;20438;-54
2023/12/28 07:50:04;;;;;;;1.77;1.60;;;;;;;11.16;53.31;96633.63;5132404;27;20978;-54
2023/12/28 07:52:32;;;;;;;0.60;0.53;;;;;;;11.53;52.18;96639.28;5132415;27;20470;-53
2023/12/28 07:55:01;;;;;;;1.90;1.80;;;;;;;11.85;51.56;96653.59;5132156;27;20441;-53
2023/12/28 07:57:30;;;;;;;0.60;0.60;;;;;;;12.07;51.88;96650.94;5131967;27;20434;-53
2023/12/28 07:59:59;;;;;;;5.73;3.23;;;;;;;11.32;52.89;96626.72;5132862;27;20430;-52
2023/12/28 08:02:28;;;;;;;1.60;1.50;;;;;;;11.68;52.46;96649.31;5131734;27;20445;-52
2023/12/28 08:04:57;;;;;;;1.13;0.80;;;;;;;12.03;52.03;96647.19;5132414;27;20491;-52
2023/12/28 08:07:27;;;;;;;1.43;1.33;;;;;;;12.21;51.65;96654.06;5131741;27;20434;-53
2023/12/28 08:09:55;;;;;;;2.87;2.27;;;;;;;12.48;50.67;96634.44;5132562;27;20474;-53
2023/12/28 08:12:27;;;;;;;0.77;0.57;;;;;;;13.45;49.66;96650.34;5132504;27;20438;-54
2023/12/28 08:14:56;;;;;;;1.33;1.10;;;;;;;13.91;48.80;96646.13;5132287;27;20442;-54
2023/12/28 08:17:25;;;;;;;0.87;0.80;;;;;;;14.13;47.95;96644.13;5132121;27;20465;-55
2023/12/28 08:19:55;;;;;;;1.93;1.50;;;;;;;13.86;48.55;96646.09;5132790;28;20430;-56
2023/12/28 08:22:24;;;;;;;2.80;2.10;;;;;;;14.09;48.65;96653.69;5138915;27;20450;-56
2023/12/28 08:24:54;;;;;;;1.83;1.73;;;;;;;14.16;47.51;96654.28;5139291;27;20495;-55
2023/12/28 08:27:22;;;;;;;3.77;3.50;;;;;;;14.39;48.04;96650.41;5138661;27;20446;-56
2023/12/28 08:29:51;;;;;;;3.37;1.97;;;;;;;14.23;47.34;96652.16;5139094;27;20480;-56
2023/12/28 08:32:20;;;;;;;10.63;1.67;;;;;;;14.42;46.72;96592.00;5138868;27;20434;-56
2023/12/28 08:34:49;;;;;;;2.30;1.40;;;;;;;15.27;46.36;96639.44;5137879;27;20862;-56
2023/12/28 08:37:17;;;;;;;1.83;1.73;;;;;;;15.42;45.12;96637.81;5138612;27;20436;-56
2023/12/28 08:39:46;;;;;;;2.77;1.47;;;;;;;15.26;45.08;96627.13;5138820;27;20441;-56
2023/12/28 08:42:16;;;;;;;1.60;1.03;;;;;;;15.69;44.57;96630.34;5138216;27;20426;-56
2023/12/28 08:44:45;;;;;;;1.43;1.40;;;;;;;16.36;43.72;96632.59;5139295;27;20809;-57
2023/12/28 08:47:17;;;;;;;1.43;1.33;;;;;;;16.89;42.42;96623.00;5137901;27;20534;-56
2023/12/28 08:49:46;;;;;;;6.07;3.10;;;;;;;16.79;43.20;96618.50;5138379;27;20499;-57
2023/12/28 08:52:15;;;;;;;1.60;1.50;;;;;;;16.92;42.37;96606.38;5111892;27;20470;-57
2023/12/28 08:54:44;;;;;;;2.40;2.20;;;;;;;16.88;41.61;96605.31;5138460;27;20982;-57
2023/12/28 08:57:12;;;;;;;1.37;1.27;;;;;;;17.51;41.06;96614.22;5137935;27;20462;-56
2023/12/28 08:59:43;;;;;;;5.53;2.00;;;;;;;17.49;40.22;96593.09;5138396;27;20529;-56
2023/12/28 09:02:11;;;;;;;3.27;1.70;;;;;;;17.08;40.40;96607.88;5138153;27;20450;-55
2023/12/28 09:04:40;;;;;;;2.30;2.20;;;;;;;17.53;40.82;96602.19;5138298;27;20445;-55
2023/12/28 09:07:09;;;;;;;12.70;2.60;;;;;;;17.51;40.08;96604.31;5138627;27;20452;-55
2023/12/28 09:09:38;;;;;;;3.83;3.57;;;;;;;17.89;40.45;96599.16;5138568;27;20472;-55
2023/12/28 09:12:07;;;;;;;1.60;1.50;;;;;;;18.01;39.96;96591.53;5138383;27;20956;-55
2023/12/28 09:14:36;;;;;;;3.93;1.90;;;;;;;17.95;40.39;96585.44;5138479;27;20464;-55
2023/12/28 09:17:04;;;;;;;2.03;1.93;;;;;;;18.16;40.16;96580.66;5133038;27;20857;-55
2023/12/28 09:19:33;;;;;;;6.27;3.13;;;;;;;17.80;40.27;96577.53;5138904;27;20798;-55
2023/12/28 09:22:02;;;;;;;5.10;1.53;;;;;;;17.93;40.63;96573.38;5138311;27;20434;-55
2023/12/28 09:24:30;;;;;;;2.60;1.60;;;;;;;18.66;39.85;96563.91;5138331;27;20797;-55
2023/12/28 09:26:59;;;;;;;3.03;1.70;;;;;;;18.70;40.38;96550.69;5138453;27;20469;-55
2023/12/28 09:29:27;;;;;;;1.57;1.47;;;;;;;18.35;39.18;96554.63;5138016;27;20465;-55
2023/12/28 09:31:56;;;;;;;1.00;1.00;;;;;;;18.03;39.50;96554.50;5137783;27;20441;-54
2023/12/28 09:34:26;;;;;;;3.20;1.10;;;;;;;18.55;39.96;96538.28;5134681;27;20426;-54
2023/12/28 09:36:55;;;;;;;1.80;1.63;;;;;;;18.67;38.62;96527.13;5125794;27;20436;-54
2023/12/28 09:39:23;;;;;;;8.30;1.50;;;;;;;18.34;39.43;96526.22;5135245;27;20466;-55
2023/12/28 09:41:58;;;;;;;9.73;1.50;;;;;;;19.79;37.78;96516.09;5134177;27;20821;-55
2023/12/28 09:44:29;;;;;;;7.00;1.63;;;;;;;19.79;36.77;96510.72;5134559;27;20442;-55
2023/12/28 09:46:59;;;;;;;1.40;1.30;;;;;;;19.93;37.09;96498.09;5133753;27;20448;-55
2023/12/28 09:49:33;;;;;;;0.50;0.40;;;;;;;20.67;35.64;96499.50;5132239;27;20470;-55
2023/12/28 09:52:01;;;;;;;2.70;0.83;;;;;;;19.87;35.93;96492.00;5129731;27;20553;-54
2023/12/28 09:54:30;;;;;;;3.43;1.00;;;;;;;19.68;36.12;96496.69;5133042;27;20439;-54
2023/12/28 09:56:59;;;;;;;1.63;1.53;;;;;;;19.11;36.91;96494.44;5130508;27;20459;-55
2023/12/28 09:59:29;;;;;;;2.27;1.00;;;;;;;19.34;36.71;96480.06;5127518;27;20434;-54
2023/12/28 10:01:58;;;;;;;3.23;2.30;;;;;;;20.01;35.77;96484.72;5121893;27;20439;-54
2023/12/28 10:04:28;;;;;;;0.77;0.77;;;;;;;20.62;35.32;96480.72;5134515;27;20510;-54
2023/12/28 10:06:59;;;;;;;1.13;1.00;;;;;;;21.56;34.18;96469.78;5134184;27;20430;-55
2023/12/28 10:09:27;;;;;;;0.97;0.97;;;;;;;21.25;34.02;96467.91;5133877;27;20466;-55
2023/12/28 10:11:57;;;;;;;0.97;0.40;;;;;;;21.14;34.66;96450.41;5134717;27;20811;-55
2023/12/28 10:14:27;;;;;;;0.97;0.90;;;;;;;21.74;34.24;96456.06;5130622;27;20790;-54
2023/12/28 10:16:55;;;;;;;0.80;0.57;;;;;;;21.60;34.25;96452.69;5127080;27;20783;-55
2023/12/28 10:19:24;;;;;;;0.50;0.30;;;;;;;22.07;32.59;96441.13;5128999;27;20945;-54
2023/12/28 10:21:53;;;;;;;1.20;0.80;;;;;;;21.66;33.22;96443.34;5125272;27;20493;-54
2023/12/28 10:24:23;;;;;;;3.77;0.50;;;;;;;21.21;34.11;96439.16;5114337;27;20489;-55
2023/12/28 10:26:53;;;;;;;1.17;1.17;;;;;;;21.50;33.90;96429.47;5119955;27;20590;-54
2023/12/28 10:29:25;;;;;;;0.50;0.43;;;;;;;21.75;32.75;96376.72;5120820;27;20449;-54
2023/12/28 10:31:55;;;;;;;0.40;0.30;;;;;;;22.58;31.86;96417.97;5129617;27;20530;-54
2023/12/28 10:34:25;;;;;;;0.60;0.50;;;;;;;22.85;32.34;96404.13;5133607;27;20500;-55
2023/12/28 10:36:55;;;;;;;0.60;0.50;;;;;;;23.64;32.03;96404.38;5133541;27;20441;-54
2023/12/28 10:39:26;;;;;;;0.60;0.60;;;;;;;24.32;30.06;96396.97;5134263;27;20515;-54
2023/12/28 10:41:58;;;;;;;1.53;0.70;;;;;;;23.60;32.08;96389.94;5133603;27;20435;-54
2023/12/28 10:44:33;;;;;;;0.40;0.40;;;;;;;24.26;30.29;96382.84;5133733;27;20776;-54
2023/12/28 10:47:03;;;;;;;3.93;0.70;;;;;;;23.57;31.22;96362.72;5133472;27;20438;-54
2023/12/28 10:49:37;;;;;;;2.40;1.17;;;;;;;21.89;32.73;96319.91;5133854;27;20455;-54
2023/12/28 10:52:10;;;;;;;1.43;1.23;;;;;;;22.66;32.78;96371.25;5133135;27;20503;-55
2023/12/28 10:54:46;;;;;;;1.80;0.60;;;;;;;22.98;32.39;96365.28;5132496;27;20471;-54
2023/12/28 10:57:27;;;;;;;1.53;0.87;;;;;;;23.24;31.19;96362.50;5133455;27;20521;-54
2023/12/28 11:00:06;;;;;;;0.50;0.50;;;;;;;24.45;30.08;96352.56;5106775;27;20438;-54
2023/12/28 11:02:41;;;;;;;0.80;0.80;;;;;;;23.66;31.06;96350.72;5133220;27;20953;-53
2023/12/28 11:05:10;;;;;;;5.37;1.30;;;;;;;24.44;30.07;96348.25;5133106;27;20461;-53
2023/12/28 11:07:41;;;;;;;0.43;0.37;;;;;;;25.05;29.32;96341.13;5133312;27;20487;-53
2023/12/28 11:10:14;;;;;;;0.97;0.50;;;;;;;24.78;29.57;96337.13;5132645;27;20584;-54
2023/12/28 11:12:44;;;;;;;0.50;0.40;;;;;;;24.15;30.31;96335.59;5128017;27;20860;-55
2023/12/28 11:15:14;;;;;;;1.37;1.27;;;;;;;23.30;31.36;96326.06;5132860;27;20947;-54
2023/12/28 11:17:44;;;;;;;4.10;0.77;;;;;;;23.44;31.21;96326.63;5121534;27;20473;-55
2023/12/28 11:20:14;;;;;;;1.00;1.00;;;;;;;23.34;30.58;96329.69;5133429;27;20465;-54
2023/12/28 11:22:43;;;;;;;0.97;0.97;;;;;;;23.73;31.70;96320.44;5133358;27;20804;-54
2023/12/28 11:25:20;;;;;;;0.93;0.90;;;;;;;23.68;30.25;96315.22;5133085;27;20441;-54
2023/12/28 11:27:49;;;;;;;1.00;0.97;;;;;;;23.21;31.62;96317.16;5132131;27;20437;-54
2023/12/28 11:30:17;;;;;;;1.13;0.60;;;;;;;23.87;31.72;96307.41;5132718;27;20523;-54
2023/12/28 11:32:46;;;;;;;0.90;0.87;;;;;;;24.11;30.97;96296.75;5132623;27;20431;-54
2023/12/28 11:35:15;;;;;;;2.30;1.30;;;;;;;25.19;29.52;96296.28;5132678;27;20830;-53
2023/12/28 11:37:48;;;;;;;1.37;0.67;;;;;;;26.07;28.59;96278.44;5132281;27;20442;-54
2023/12/28 11:40:20;;;;;;;0.90;0.90;;;;;;;25.23;28.79;96232.06;5132849;27;20915;-55
2023/12/28 11:42:52;;;;;;;1.60;1.00;;;;;;;24.27;29.85;96286.09;5106360;27;20437;-55
2023/12/28 11:45:23;;;;;;;1.23;1.13;;;;;;;24.10;30.25;96280.84;5132422;27;20542;-53
2023/12/28 11:48:01;;;;;;;1.90;1.13;;;;;;;23.71;30.57;96217.06;5132722;27;20431;-54
2023/12/28 11:50:29;;;;;;;0.70;0.60;;;;;;;25.04;28.93;96275.25;5128913;27;20491;-54